Time;durP1;ratioP1;P1;durP2;ratioP2;P2;SDS_P1;SDS_P2;PMS_P1;PMS_P2;Temp;Humidity;BMP_temperature;BMP_pressure;BME280_temperature;BME280_humidity;BME280_pressure;Samples;Min_cycle;Max_cycle;Signal;HPM_P1;HPM_P2
2023/08/27 00:02:10;;;;;;;4.93;3.10;;;;;;;;;;5044306;28;20414;-61
2023/08/27 00:04:37;;;;;;;7.90;3.40;;;;;;;;;;5044623;28;20409;-61
2023/08/27 00:07:04;;;;;;;6.68;3.83;;;;;;;;;;5038130;28;20466;-61
2023/08/27 00:09:31;;;;;;;5.18;3.30;;;;;;;;;;5043362;28;20425;-61
2023/08/27 00:11:58;;;;;;;6.32;3.55;;;;;;;;;;5049400;28;20475;-61
2023/08/27 00:14:26;;;;;;;6.85;4.13;;;;;;;;;;5043739;28;20414;-61
2023/08/27 00:16:53;;;;;;;6.68;3.50;;;;;;;;;;5046060;28;20945;-60
2023/08/27 00:19:20;;;;;;;4.97;3.45;;;;;;;;;;5043629;28;20488;-61
2023/08/27 00:21:48;;;;;;;6.67;4.00;;;;;;;;;;5045882;28;20425;-60
2023/08/27 00:24:15;;;;;;;8.57;4.85;;;;;;;;;;5043749;28;20570;-61
2023/08/27 00:26:42;;;;;;;5.78;3.65;;;;;;;;;;5044503;28;20411;-60
2023/08/27 00:29:09;;;;;;;4.47;3.35;;;;;;;;;;5044316;28;20417;-60
2023/08/27 00:31:37;;;;;;;5.60;3.58;;;;;;;;;;5046833;28;20477;-61
2023/08/27 00:34:04;;;;;;;6.30;3.40;;;;;;;;;;5044312;28;20409;-61
2023/08/27 00:36:31;;;;;;;5.18;3.42;;;;;;;;;;5038978;28;20830;-61
2023/08/27 00:38:58;;;;;;;5.18;3.63;;;;;;;;;;5040962;28;20409;-61
2023/08/27 00:41:25;;;;;;;6.00;3.40;;;;;;;;;;5044924;28;20410;-60
2023/08/27 00:43:52;;;;;;;4.47;3.30;;;;;;;;;;5042112;28;20425;-61
2023/08/27 00:46:19;;;;;;;6.72;4.20;;;;;;;;;;5044618;28;20421;-60
2023/08/27 00:48:48;;;;;;;4.75;2.90;;;;;;;;;;5043443;28;20487;-61
2023/08/27 00:51:15;;;;;;;5.00;3.40;;;;;;;;;;5048006;28;20425;-62
2023/08/27 00:53:42;;;;;;;6.70;2.95;;;;;;;;;;5042525;28;20411;-60
2023/08/27 00:56:09;;;;;;;5.27;3.00;;;;;;;;;;5048408;28;20496;-60
2023/08/27 00:58:36;;;;;;;5.55;3.30;;;;;;;;;;5041728;28;20861;-61
2023/08/27 01:01:04;;;;;;;4.63;3.30;;;;;;;;;;5047952;28;20425;-61
2023/08/27 01:03:32;;;;;;;3.45;2.72;;;;;;;;;;5040769;28;20873;-61
2023/08/27 01:06:00;;;;;;;4.45;3.00;;;;;;;;;;5043221;28;20443;-61
2023/08/27 01:08:29;;;;;;;5.63;3.08;;;;;;;;;;5035857;28;20457;-60
2023/08/27 01:10:59;;;;;;;5.70;2.93;;;;;;;;;;5047384;28;20463;-60
2023/08/27 01:13:29;;;;;;;5.40;3.08;;;;;;;;;;5040204;28;20411;-61
2023/08/27 01:15:59;;;;;;;5.50;2.60;;;;;;;;;;5043336;28;20475;-61
2023/08/27 01:18:26;;;;;;;5.20;3.30;;;;;;;;;;5042820;28;20455;-61
2023/08/27 01:20:53;;;;;;;5.40;2.90;;;;;;;;;;5041637;28;20550;-61
2023/08/27 01:23:22;;;;;;;5.63;3.20;;;;;;;;;;5044986;28;20424;-61
2023/08/27 01:25:50;;;;;;;4.53;2.83;;;;;;;;;;5052168;28;20880;-60
2023/08/27 01:28:22;;;;;;;5.37;3.37;;;;;;;;;;5047582;28;20541;-59
2023/08/27 01:30:54;;;;;;;6.15;3.25;;;;;;;;;;5051994;28;21005;-61
2023/08/27 01:33:23;;;;;;;5.20;3.10;;;;;;;;;;5052423;28;21009;-60
2023/08/27 01:35:50;;;;;;;6.00;3.38;;;;;;;;;;5047226;28;20454;-60
2023/08/27 01:38:18;;;;;;;6.67;3.53;;;;;;;;;;5044437;28;20911;-60
2023/08/27 01:40:46;;;;;;;5.30;3.70;;;;;;;;;;5050655;28;20513;-60
2023/08/27 01:43:13;;;;;;;5.78;3.50;;;;;;;;;;5049348;28;20515;-59
2023/08/27 01:45:40;;;;;;;5.18;3.67;;;;;;;;;;5049775;28;20452;-61
2023/08/27 01:48:07;;;;;;;6.30;3.33;;;;;;;;;;5051893;28;20420;-59
2023/08/27 01:50:34;;;;;;;6.18;3.50;;;;;;;;;;5049594;28;20903;-60
2023/08/27 01:53:02;;;;;;;6.27;3.80;;;;;;;;;;5051923;28;20463;-59
2023/08/27 01:55:29;;;;;;;5.25;3.50;;;;;;;;;;5047745;28;20464;-59
2023/08/27 01:57:56;;;;;;;6.88;3.42;;;;;;;;;;5042333;28;20424;-59
2023/08/27 02:00:23;;;;;;;5.70;3.55;;;;;;;;;;5043144;28;20807;-60
2023/08/27 02:02:51;;;;;;;5.60;3.83;;;;;;;;;;5051135;28;20420;-62
2023/08/27 02:05:18;;;;;;;6.20;3.60;;;;;;;;;;5047133;28;20422;-60
2023/08/27 02:07:45;;;;;;;8.48;3.92;;;;;;;;;;5042792;28;20804;-59
2023/08/27 02:10:12;;;;;;;5.78;3.50;;;;;;;;;;5049813;28;20423;-61
2023/08/27 02:12:39;;;;;;;4.13;3.50;;;;;;;;;;5052674;28;20418;-59
2023/08/27 02:15:08;;;;;;;6.68;3.85;;;;;;;;;;5049848;28;20459;-61
2023/08/27 02:17:37;;;;;;;5.70;3.60;;;;;;;;;;5051722;28;20569;-58
2023/08/27 02:20:07;;;;;;;5.40;3.20;;;;;;;;;;5052521;28;20462;-60
2023/08/27 02:22:34;;;;;;;4.90;3.70;;;;;;;;;;5051112;28;20485;-60
2023/08/27 02:25:01;;;;;;;5.68;3.60;;;;;;;;;;5049864;28;20433;-60
2023/08/27 02:27:28;;;;;;;6.00;3.58;;;;;;;;;;5050634;28;20417;-61
2023/08/27 02:29:55;;;;;;;5.15;3.35;;;;;;;;;;5048877;28;20409;-60
2023/08/27 02:32:24;;;;;;;4.97;3.22;;;;;;;;;;5052799;28;20417;-62
2023/08/27 02:34:51;;;;;;;5.45;3.53;;;;;;;;;;5055215;28;20450;-60
2023/08/27 02:37:18;;;;;;;8.23;3.60;;;;;;;;;;5039125;28;20851;-62
2023/08/27 02:39:45;;;;;;;5.05;3.45;;;;;;;;;;5045140;28;20459;-60
2023/08/27 02:42:12;;;;;;;4.57;3.30;;;;;;;;;;5050095;28;20420;-61
2023/08/27 02:44:39;;;;;;;4.68;3.70;;;;;;;;;;5044097;28;20476;-60
2023/08/27 02:47:06;;;;;;;5.15;3.50;;;;;;;;;;5050190;28;20467;-62
2023/08/27 02:49:34;;;;;;;4.00;3.30;;;;;;;;;;5043225;28;20423;-62
2023/08/27 02:52:01;;;;;;;4.78;3.40;;;;;;;;;;5049668;28;20424;-62
2023/08/27 02:54:28;;;;;;;5.40;3.67;;;;;;;;;;5042645;28;20418;-62
2023/08/27 02:56:55;;;;;;;4.55;3.25;;;;;;;;;;5042474;28;20420;-60
2023/08/27 02:59:22;;;;;;;5.32;3.63;;;;;;;;;;5042734;28;20418;-61
2023/08/27 03:01:49;;;;;;;5.88;3.80;;;;;;;;;;5048334;28;20543;-62
2023/08/27 03:04:16;;;;;;;4.15;3.20;;;;;;;;;;5045954;28;20437;-60
2023/08/27 03:06:44;;;;;;;5.75;3.58;;;;;;;;;;5039622;28;20414;-59
2023/08/27 03:09:11;;;;;;;5.15;3.65;;;;;;;;;;5042750;28;20446;-62
2023/08/27 03:11:38;;;;;;;5.63;4.00;;;;;;;;;;5047263;28;20415;-62
2023/08/27 03:14:06;;;;;;;5.53;3.40;;;;;;;;;;5045141;28;21073;-60
2023/08/27 03:16:33;;;;;;;4.82;3.50;;;;;;;;;;5046754;28;20415;-62
2023/08/27 03:19:00;;;;;;;4.00;3.30;;;;;;;;;;5045068;28;20450;-59
2023/08/27 03:21:27;;;;;;;4.68;3.53;;;;;;;;;;5046492;28;20417;-61
2023/08/27 03:23:56;;;;;;;4.72;3.38;;;;;;;;;;5044504;28;20838;-60
2023/08/27 03:26:23;;;;;;;4.30;3.45;;;;;;;;;;5046787;28;20511;-61
2023/08/27 03:28:49;;;;;;;5.10;3.33;;;;;;;;;;5046963;28;20411;-61
2023/08/27 03:31:16;;;;;;;5.72;3.33;;;;;;;;;;5048759;28;20850;-62
2023/08/27 03:33:43;;;;;;;4.37;2.70;;;;;;;;;;5045885;28;20419;-62
2023/08/27 03:36:10;;;;;;;5.82;3.22;;;;;;;;;;5041643;28;20445;-62
2023/08/27 03:38:37;;;;;;;5.10;3.00;;;;;;;;;;5041007;28;20409;-62
2023/08/27 03:41:06;;;;;;;5.68;3.00;;;;;;;;;;5047772;28;20459;-62
2023/08/27 03:43:33;;;;;;;4.68;2.90;;;;;;;;;;5043898;28;20515;-62
2023/08/27 03:46:00;;;;;;;4.55;2.75;;;;;;;;;;5047697;28;20416;-61
2023/08/27 03:48:27;;;;;;;3.15;2.60;;;;;;;;;;5044339;28;20822;-60
2023/08/27 03:50:54;;;;;;;6.07;2.97;;;;;;;;;;5046719;28;20475;-61
2023/08/27 03:53:21;;;;;;;3.17;2.78;;;;;;;;;;5046982;28;20895;-61
2023/08/27 03:55:48;;;;;;;2.75;2.35;;;;;;;;;;5045292;28;20415;-61
2023/08/27 03:58:16;;;;;;;3.43;2.40;;;;;;;;;;5047132;28;20549;-61
2023/08/27 04:00:43;;;;;;;4.80;2.60;;;;;;;;;;5044085;28;20602;-61
2023/08/27 04:03:10;;;;;;;4.03;2.38;;;;;;;;;;5046783;28;21083;-60
2023/08/27 04:05:40;;;;;;;3.95;2.30;;;;;;;;;;5040870;28;20442;-62
2023/08/27 04:08:07;;;;;;;3.67;2.50;;;;;;;;;;5040198;28;20471;-62
2023/08/27 04:10:34;;;;;;;5.50;2.67;;;;;;;;;;5046239;28;20543;-62
2023/08/27 04:13:01;;;;;;;3.60;2.30;;;;;;;;;;5046380;28;20417;-62
2023/08/27 04:15:30;;;;;;;3.93;2.50;;;;;;;;;;5043229;28;20423;-61
2023/08/27 04:17:57;;;;;;;3.50;2.60;;;;;;;;;;5041665;28;20473;-61
2023/08/27 04:20:24;;;;;;;3.33;2.10;;;;;;;;;;5048473;28;20451;-62
2023/08/27 04:22:51;;;;;;;5.10;2.60;;;;;;;;;;5048724;28;20476;-61
2023/08/27 04:25:18;;;;;;;4.07;2.40;;;;;;;;;;5046681;28;20432;-62
2023/08/27 04:27:45;;;;;;;4.40;2.40;;;;;;;;;;5046950;28;20425;-61
2023/08/27 04:30:13;;;;;;;2.78;2.25;;;;;;;;;;5042886;28;20784;-62
2023/08/27 04:32:43;;;;;;;4.60;2.50;;;;;;;;;;5045861;28;20480;-60
2023/08/27 04:35:10;;;;;;;3.65;2.35;;;;;;;;;;5043277;28;20460;-61
2023/08/27 04:37:37;;;;;;;2.80;2.30;;;;;;;;;;5037502;28;20422;-60
2023/08/27 04:40:04;;;;;;;2.45;2.25;;;;;;;;;;5043865;28;20435;-61
2023/08/27 04:42:31;;;;;;;3.80;2.45;;;;;;;;;;5044409;28;20851;-60
2023/08/27 04:44:58;;;;;;;4.20;2.25;;;;;;;;;;5042444;28;20425;-60
2023/08/27 04:47:25;;;;;;;4.35;2.30;;;;;;;;;;5043501;28;20462;-61
2023/08/27 04:49:53;;;;;;;3.80;2.20;;;;;;;;;;5046954;28;20832;-61
2023/08/27 04:52:20;;;;;;;2.70;2.07;;;;;;;;;;5048882;28;20476;-62
2023/08/27 04:54:47;;;;;;;3.30;2.20;;;;;;;;;;5042086;28;20415;-61
2023/08/27 04:57:14;;;;;;;3.45;2.25;;;;;;;;;;5043676;28;20434;-61
2023/08/27 04:59:41;;;;;;;2.60;2.00;;;;;;;;;;5035748;28;20425;-61
2023/08/27 05:02:08;;;;;;;2.30;1.90;;;;;;;;;;5037257;28;20418;-62
2023/08/27 05:04:35;;;;;;;3.22;2.00;;;;;;;;;;5033903;28;20434;-61
2023/08/27 05:07:04;;;;;;;3.00;1.90;;;;;;;;;;5040182;28;20442;-61
2023/08/27 05:09:30;;;;;;;2.50;2.00;;;;;;;;;;5040215;28;20460;-60
2023/08/27 05:11:57;;;;;;;3.85;1.90;;;;;;;;;;5040978;28;20896;-62
2023/08/27 05:14:24;;;;;;;4.15;2.00;;;;;;;;;;5034856;28;20473;-60
2023/08/27 05:16:51;;;;;;;3.90;2.03;;;;;;;;;;5036653;28;20410;-61
2023/08/27 05:19:18;;;;;;;2.70;2.03;;;;;;;;;;5034461;28;20923;-61
2023/08/27 05:21:45;;;;;;;3.92;1.73;;;;;;;;;;5035988;28;20411;-61
2023/08/27 05:24:14;;;;;;;3.03;1.67;;;;;;;;;;5034220;28;20486;-61
2023/08/27 05:26:41;;;;;;;4.37;1.90;;;;;;;;;;5035331;28;20834;-62
2023/08/27 05:29:08;;;;;;;3.00;2.00;;;;;;;;;;5034420;28;20446;-62
2023/08/27 05:31:35;;;;;;;3.30;2.00;;;;;;;;;;5034338;28;20967;-61
2023/08/27 05:34:02;;;;;;;4.47;1.90;;;;;;;;;;5037339;28;20413;-62
2023/08/27 05:36:29;;;;;;;3.07;1.70;;;;;;;;;;5037989;28;20409;-62
2023/08/27 05:38:56;;;;;;;3.40;2.10;;;;;;;;;;5037547;28;20986;-61
2023/08/27 05:41:24;;;;;;;5.10;1.98;;;;;;;;;;5040994;28;20409;-61
2023/08/27 05:43:51;;;;;;;3.47;2.03;;;;;;;;;;5044322;28;20452;-62
2023/08/27 05:46:18;;;;;;;4.88;2.10;;;;;;;;;;5044602;28;20439;-62
2023/08/27 05:48:45;;;;;;;5.25;2.00;;;;;;;;;;5043363;28;20424;-61
2023/08/27 05:51:12;;;;;;;3.33;2.10;;;;;;;;;;5044909;28;20869;-61
2023/08/27 05:53:39;;;;;;;4.00;2.40;;;;;;;;;;5042302;28;20450;-62
2023/08/27 05:56:06;;;;;;;4.83;2.50;;;;;;;;;;5045312;28;20409;-61
2023/08/27 05:58:35;;;;;;;3.88;2.35;;;;;;;;;;5041557;28;20408;-61
2023/08/27 06:01:02;;;;;;;4.03;2.35;;;;;;;;;;5044030;28;20424;-62
2023/08/27 06:03:29;;;;;;;4.20;2.42;;;;;;;;;;5046084;28;20494;-61
2023/08/27 06:05:56;;;;;;;3.83;2.38;;;;;;;;;;5044727;28;20440;-61
2023/08/27 06:08:23;;;;;;;3.30;2.33;;;;;;;;;;5040759;28;20418;-60
2023/08/27 06:10:50;;;;;;;4.07;2.70;;;;;;;;;;5040535;28;20583;-62
2023/08/27 06:13:18;;;;;;;3.07;2.60;;;;;;;;;;5048987;28;20439;-62
2023/08/27 06:15:46;;;;;;;4.15;2.63;;;;;;;;;;5045595;28;20456;-61
2023/08/27 06:18:13;;;;;;;3.83;3.00;;;;;;;;;;5048577;28;20991;-61
2023/08/27 06:20:42;;;;;;;4.32;3.17;;;;;;;;;;5045085;28;20476;-62
2023/08/27 06:23:09;;;;;;;4.30;2.78;;;;;;;;;;5048421;28;20428;-62
2023/08/27 06:25:37;;;;;;;3.53;3.03;;;;;;;;;;5046863;28;20438;-62
2023/08/27 06:28:04;;;;;;;4.55;3.33;;;;;;;;;;5051329;28;20798;-61
2023/08/27 06:30:31;;;;;;;5.78;3.50;;;;;;;;;;5044783;28;20913;-61
2023/08/27 06:33:00;;;;;;;4.70;3.00;;;;;;;;;;5050563;28;20471;-61
2023/08/27 06:35:27;;;;;;;4.47;3.28;;;;;;;;;;5044659;28;20789;-62
2023/08/27 06:37:54;;;;;;;5.63;3.13;;;;;;;;;;5045361;28;20475;-62
2023/08/27 06:40:21;;;;;;;4.80;3.03;;;;;;;;;;5038646;28;20810;-62
2023/08/27 06:42:48;;;;;;;3.92;3.00;;;;;;;;;;5048790;28;20411;-61
2023/08/27 06:45:15;;;;;;;3.97;2.88;;;;;;;;;;5044606;28;20433;-61
2023/08/27 06:47:43;;;;;;;4.72;2.90;;;;;;;;;;5047482;28;20422;-62
2023/08/27 06:50:12;;;;;;;4.05;3.00;;;;;;;;;;5046257;28;20433;-61
2023/08/27 06:52:39;;;;;;;4.63;3.10;;;;;;;;;;5048397;28;20445;-62
2023/08/27 06:55:06;;;;;;;5.45;3.70;;;;;;;;;;5046392;28;20776;-62
2023/08/27 06:57:33;;;;;;;4.68;3.67;;;;;;;;;;5048292;28;20410;-62
2023/08/27 07:00:01;;;;;;;4.60;3.00;;;;;;;;;;5045838;28;20779;-62
2023/08/27 07:02:28;;;;;;;5.00;3.25;;;;;;;;;;5046220;28;20488;-62
2023/08/27 07:04:55;;;;;;;5.68;3.40;;;;;;;;;;5046686;28;20433;-61
2023/08/27 07:07:23;;;;;;;4.60;3.30;;;;;;;;;;5046912;28;20745;-61
2023/08/27 07:09:50;;;;;;;5.15;3.50;;;;;;;;;;5040054;28;20419;-62
2023/08/27 07:12:18;;;;;;;7.00;3.42;;;;;;;;;;5048877;28;20467;-62
2023/08/27 07:14:45;;;;;;;5.85;3.75;;;;;;;;;;5047189;28;20434;-62
2023/08/27 07:17:14;;;;;;;5.88;4.10;;;;;;;;;;5051630;28;20444;-62
2023/08/27 07:19:41;;;;;;;4.90;3.60;;;;;;;;;;5045786;28;20416;-61
2023/08/27 07:22:08;;;;;;;5.93;4.15;;;;;;;;;;5044188;28;21218;-61
2023/08/27 07:24:37;;;;;;;6.05;4.03;;;;;;;;;;5043945;28;20410;-62
2023/08/27 07:27:04;;;;;;;6.45;4.15;;;;;;;;;;5043863;28;20820;-62
2023/08/27 07:29:31;;;;;;;4.72;4.10;;;;;;;;;;5044947;28;20492;-62
2023/08/27 07:31:59;;;;;;;7.22;3.80;;;;;;;;;;5046861;28;20929;-61
2023/08/27 07:34:26;;;;;;;6.25;3.90;;;;;;;;;;5044721;28;20954;-62
2023/08/27 07:36:55;;;;;;;4.63;3.72;;;;;;;;;;5047358;28;20410;-62
2023/08/27 07:39:22;;;;;;;5.93;4.35;;;;;;;;;;5035881;28;20506;-59
2023/08/27 07:41:50;;;;;;;5.60;4.20;;;;;;;;;;5044954;28;20415;-61
2023/08/27 07:44:17;;;;;;;5.95;4.25;;;;;;;;;;5047356;28;20410;-62
2023/08/27 07:46:44;;;;;;;7.13;4.47;;;;;;;;;;5044420;28;20453;-63
2023/08/27 07:49:11;;;;;;;6.93;4.47;;;;;;;;;;5047278;28;20642;-60
2023/08/27 07:51:38;;;;;;;7.20;4.50;;;;;;;;;;5044076;28;20428;-62
2023/08/27 07:54:05;;;;;;;7.10;4.63;;;;;;;;;;5044421;28;20483;-61
2023/08/27 07:56:32;;;;;;;7.38;4.80;;;;;;;;;;5044863;28;20405;-62
2023/08/27 07:59:01;;;;;;;7.32;5.22;;;;;;;;;;5040521;28;20965;-64
2023/08/27 08:01:28;;;;;;;7.40;4.90;;;;;;;;;;5040216;28;20471;-64
2023/08/27 08:03:55;;;;;;;5.15;4.65;;;;;;;;;;5039709;28;20419;-64
2023/08/27 08:06:22;;;;;;;6.00;5.32;;;;;;;;;;5041157;28;20823;-64
2023/08/27 08:08:49;;;;;;;6.22;5.03;;;;;;;;;;5048193;28;20827;-65
2023/08/27 08:11:16;;;;;;;5.60;4.97;;;;;;;;;;5046027;28;20467;-64
2023/08/27 08:13:45;;;;;;;6.03;4.63;;;;;;;;;;5046297;28;20405;-65
2023/08/27 08:16:13;;;;;;;5.88;5.20;;;;;;;;;;5039154;28;20438;-64
2023/08/27 08:18:40;;;;;;;5.82;4.60;;;;;;;;;;5046798;28;20791;-64
2023/08/27 08:21:07;;;;;;;6.18;4.70;;;;;;;;;;5036545;28;20419;-65
2023/08/27 08:23:34;;;;;;;7.22;5.00;;;;;;;;;;5038879;28;20415;-64
2023/08/27 08:26:02;;;;;;;6.93;5.43;;;;;;;;;;5035496;28;20427;-64
2023/08/27 08:28:29;;;;;;;6.00;5.05;;;;;;;;;;5040509;28;20411;-65
2023/08/27 08:30:56;;;;;;;6.38;5.20;;;;;;;;;;5040617;28;20773;-69
2023/08/27 08:33:24;;;;;;;6.32;4.57;;;;;;;;;;5045531;28;20421;-67
2023/08/27 08:35:51;;;;;;;5.87;4.80;;;;;;;;;;5034549;28;20407;-66
2023/08/27 08:38:18;;;;;;;5.60;4.72;;;;;;;;;;5043315;28;20413;-65
2023/08/27 08:40:46;;;;;;;6.47;4.60;;;;;;;;;;5040492;28;20413;-69
2023/08/27 08:43:19;;;;;;;8.18;5.10;;;;;;;;;;5050535;28;20443;-68
2023/08/27 08:45:51;;;;;;;6.82;5.22;;;;;;;;;;5047533;28;20423;-65
2023/08/27 08:48:22;;;;;;;6.05;5.20;;;;;;;;;;5048316;28;20459;-64
2023/08/27 08:50:52;;;;;;;7.53;5.22;;;;;;;;;;5041859;28;20410;-64
2023/08/27 08:53:19;;;;;;;5.83;4.57;;;;;;;;;;5043251;28;20425;-63
2023/08/27 08:55:47;;;;;;;7.72;4.60;;;;;;;;;;5038186;28;20415;-65
2023/08/27 08:58:16;;;;;;;5.75;4.32;;;;;;;;;;5040376;28;20427;-65
2023/08/27 09:00:43;;;;;;;4.00;3.60;;;;;;;;;;5036279;28;20963;-64
2023/08/27 09:03:12;;;;;;;5.72;3.58;;;;;;;;;;5042249;28;20426;-67
2023/08/27 09:05:40;;;;;;;4.70;3.50;;;;;;;;;;5035869;28;20434;-64
2023/08/27 09:08:10;;;;;;;4.63;3.55;;;;;;;;;;5044016;28;20428;-63
2023/08/27 09:10:38;;;;;;;4.80;3.40;;;;;;;;;;5052821;28;20401;-65
2023/08/27 09:13:06;;;;;;;4.27;3.50;;;;;;;;;;5043173;28;20791;-64
2023/08/27 09:15:33;;;;;;;5.00;3.40;;;;;;;;;;5032732;28;20407;-65
2023/08/27 09:18:00;;;;;;;4.90;3.63;;;;;;;;;;5041830;28;21023;-63
2023/08/27 09:20:27;;;;;;;7.00;3.53;;;;;;;;;;5040528;28;20413;-64
2023/08/27 09:22:54;;;;;;;5.85;3.15;;;;;;;;;;5035424;28;20415;-65
2023/08/27 09:25:23;;;;;;;3.65;2.92;;;;;;;;;;5037351;28;20512;-67
2023/08/27 09:27:50;;;;;;;4.53;3.10;;;;;;;;;;5041670;28;20445;-64
2023/08/27 09:30:17;;;;;;;3.78;3.00;;;;;;;;;;5061240;28;20412;-64
2023/08/27 09:32:46;;;;;;;3.83;2.67;;;;;;;;;;5058866;28;20417;-66
2023/08/27 09:35:13;;;;;;;4.10;2.80;;;;;;;;;;5041765;28;20441;-64
2023/08/27 09:37:41;;;;;;;3.53;2.40;;;;;;;;;;5044600;28;20477;-63
2023/08/27 09:40:08;;;;;;;4.13;2.90;;;;;;;;;;5042381;28;20413;-64
2023/08/27 09:42:37;;;;;;;3.83;2.80;;;;;;;;;;5030860;28;20415;-63
2023/08/27 09:45:04;;;;;;;4.40;2.83;;;;;;;;;;5038301;28;20500;-65
2023/08/27 09:47:32;;;;;;;4.20;2.83;;;;;;;;;;5039168;28;20477;-63
2023/08/27 09:49:59;;;;;;;3.95;2.83;;;;;;;;;;5041416;28;20445;-63
2023/08/27 09:52:26;;;;;;;4.00;3.23;;;;;;;;;;5034304;28;20464;-64
2023/08/27 09:54:53;;;;;;;5.30;3.95;;;;;;;;;;5040075;28;20426;-63
2023/08/27 09:57:21;;;;;;;3.92;2.90;;;;;;;;;;5037645;28;20471;-64
2023/08/27 09:59:49;;;;;;;4.22;3.22;;;;;;;;;;5038183;28;20552;-65
2023/08/27 10:02:17;;;;;;;3.92;3.15;;;;;;;;;;5034008;28;20917;-63
2023/08/27 10:04:50;;;;;;;3.85;3.20;;;;;;;;;;5038353;28;20426;-66
2023/08/27 10:07:17;;;;;;;3.53;2.95;;;;;;;;;;5039834;28;20435;-63
2023/08/27 10:09:44;;;;;;;3.78;3.22;;;;;;;;;;5039471;28;20416;-63
2023/08/27 10:12:12;;;;;;;3.80;3.17;;;;;;;;;;5049836;28;20471;-64
2023/08/27 10:14:40;;;;;;;5.25;3.40;;;;;;;;;;5040544;28;20882;-63
2023/08/27 10:17:09;;;;;;;3.75;3.28;;;;;;;;;;5045872;28;20485;-63
2023/08/27 10:19:36;;;;;;;3.38;3.08;;;;;;;;;;5042177;28;20479;-64
2023/08/27 10:22:05;;;;;;;3.80;2.70;;;;;;;;;;5046273;28;20409;-64
2023/08/27 10:24:32;;;;;;;3.10;2.78;;;;;;;;;;5049202;28;20846;-63
2023/08/27 10:26:59;;;;;;;4.45;2.78;;;;;;;;;;5046568;28;20982;-63
2023/08/27 10:29:27;;;;;;;3.55;2.65;;;;;;;;;;5049362;28;20465;-63
2023/08/27 10:31:54;;;;;;;3.97;2.50;;;;;;;;;;5035490;28;20917;-64
2023/08/27 10:34:24;;;;;;;3.00;2.70;;;;;;;;;;5042597;28;20454;-61
2023/08/27 10:36:52;;;;;;;4.37;2.67;;;;;;;;;;5037422;28;20876;-61
2023/08/27 10:39:20;;;;;;;3.28;2.80;;;;;;;;;;5046179;28;20415;-61
2023/08/27 10:41:47;;;;;;;3.53;2.50;;;;;;;;;;5042076;28;20506;-61
2023/08/27 10:44:19;;;;;;;3.00;2.10;;;;;;;;;;5046404;28;20461;-61
2023/08/27 10:47:07;;;;;;;3.40;2.00;;;;;;;;;;5045490;28;20433;-61
2023/08/27 10:49:37;;;;;;;3.33;1.93;;;;;;;;;;5044868;28;20467;-60
2023/08/27 10:52:15;;;;;;;4.70;1.80;;;;;;;;;;5047931;28;20409;-61
2023/08/27 10:54:42;;;;;;;4.28;1.90;;;;;;;;;;5044997;28;20418;-65
2023/08/27 10:57:18;;;;;;;4.20;1.90;;;;;;;;;;5047130;28;20416;-62
2023/08/27 10:59:45;;;;;;;2.88;1.63;;;;;;;;;;5044681;28;20426;-62
2023/08/27 11:02:12;;;;;;;2.67;1.70;;;;;;;;;;5047472;28;20409;-62
2023/08/27 11:04:42;;;;;;;3.35;1.92;;;;;;;;;;5044992;28;20885;-62
2023/08/27 11:07:10;;;;;;;3.23;2.00;;;;;;;;;;5040950;28;20472;-61
2023/08/27 11:09:45;;;;;;;3.50;2.53;;;;;;;;;;5041772;28;20417;-62
2023/08/27 11:12:21;;;;;;;2.90;1.90;;;;;;;;;;5037195;28;20981;-62
2023/08/27 11:14:48;;;;;;;2.75;1.67;;;;;;;;;;5034966;28;20410;-62
2023/08/27 11:17:23;;;;;;;2.50;1.80;;;;;;;;;;5043328;28;20405;-62
2023/08/27 11:19:51;;;;;;;3.67;1.60;;;;;;;;;;5034971;28;20406;-62
2023/08/27 11:22:19;;;;;;;4.38;1.77;;;;;;;;;;5038780;28;20476;-63
2023/08/27 11:24:47;;;;;;;3.55;1.30;;;;;;;;;;5034255;28;20839;-62
2023/08/27 11:27:15;;;;;;;2.20;1.40;;;;;;;;;;5041890;28;20426;-62
2023/08/27 11:29:43;;;;;;;2.33;1.50;;;;;;;;;;5040783;28;20413;-62
2023/08/27 11:32:11;;;;;;;3.25;1.60;;;;;;;;;;5039972;28;20467;-62
2023/08/27 11:34:39;;;;;;;2.40;1.63;;;;;;;;;;5037329;28;20415;-62
2023/08/27 11:37:07;;;;;;;3.25;1.70;;;;;;;;;;5038680;28;20842;-62
2023/08/27 11:39:35;;;;;;;3.45;1.75;;;;;;;;;;5036743;28;20473;-62
2023/08/27 11:42:02;;;;;;;4.40;1.90;;;;;;;;;;5046672;28;20985;-61
2023/08/27 11:44:29;;;;;;;2.38;1.83;;;;;;;;;;5043975;28;20933;-62
2023/08/27 11:47:03;;;;;;;2.87;1.50;;;;;;;;;;5041847;28;20520;-62
2023/08/27 11:49:30;;;;;;;2.25;1.50;;;;;;;;;;5043128;28;20852;-62
2023/08/27 11:51:58;;;;;;;2.57;1.30;;;;;;;;;;5039406;28;20441;-62
2023/08/27 11:54:30;;;;;;;3.53;1.63;;;;;;;;;;5040298;28;20409;-61
2023/08/27 11:56:57;;;;;;;1.73;1.20;;;;;;;;;;5036282;28;20426;-61
2023/08/27 11:59:26;;;;;;;3.85;1.50;;;;;;;;;;5038294;28;20459;-66
2023/08/27 12:01:53;;;;;;;3.20;1.50;;;;;;;;;;5042066;28;20497;-65
2023/08/27 12:04:21;;;;;;;3.00;1.63;;;;;;;;;;5039591;28;20917;-66
2023/08/27 12:06:52;;;;;;;4.18;1.58;;;;;;;;;;5043580;28;20558;-66
2023/08/27 12:09:23;;;;;;;4.03;1.70;;;;;;;;;;5040320;28;20405;-66
2023/08/27 12:11:52;;;;;;;3.50;1.80;;;;;;;;;;5043307;28;20487;-65
2023/08/27 12:14:24;;;;;;;3.90;1.83;;;;;;;;;;5047042;28;20765;-66
2023/08/27 12:16:51;;;;;;;2.22;1.30;;;;;;;;;;5045333;28;20414;-66
2023/08/27 12:19:20;;;;;;;2.60;1.60;;;;;;;;;;5046082;28;20417;-66
2023/08/27 12:21:51;;;;;;;2.83;1.42;;;;;;;;;;5042495;28;20433;-65
2023/08/27 12:24:27;;;;;;;3.50;1.90;;;;;;;;;;5047917;28;20417;-66
2023/08/27 12:26:55;;;;;;;2.17;1.33;;;;;;;;;;5045867;28;20433;-65
2023/08/27 12:29:22;;;;;;;2.78;1.27;;;;;;;;;;5048431;28;20421;-66
2023/08/27 12:31:53;;;;;;;3.20;1.40;;;;;;;;;;5040815;28;20415;-66
2023/08/27 12:34:20;;;;;;;3.30;1.30;;;;;;;;;;5047258;28;20409;-64
2023/08/27 12:36:47;;;;;;;2.60;1.25;;;;;;;;;;5040730;28;20465;-64
2023/08/27 12:39:14;;;;;;;4.75;1.83;;;;;;;;;;5037754;28;20479;-63
2023/08/27 12:41:41;;;;;;;2.95;1.23;;;;;;;;;;5039714;28;20419;-64
2023/08/27 12:44:09;;;;;;;2.35;1.30;;;;;;;;;;5046045;28;20459;-64
2023/08/27 12:46:36;;;;;;;4.20;1.40;;;;;;;;;;5043977;28;21049;-64
2023/08/27 12:49:03;;;;;;;3.65;1.20;;;;;;;;;;5045699;28;20549;-64
2023/08/27 12:51:32;;;;;;;2.38;1.10;;;;;;;;;;5043575;28;20426;-64
2023/08/27 12:54:00;;;;;;;4.15;1.27;;;;;;;;;;5046327;28;20419;-66
2023/08/27 12:56:26;;;;;;;3.55;1.58;;;;;;;;;;5050804;28;20413;-66
2023/08/27 12:58:53;;;;;;;2.72;1.27;;;;;;;;;;5066898;28;20405;-66
2023/08/27 13:01:22;;;;;;;3.03;1.15;;;;;;;;;;5061229;28;20415;-66
2023/08/27 13:03:49;;;;;;;2.55;1.10;;;;;;;;;;5047147;28;20446;-65
2023/08/27 13:06:16;;;;;;;2.45;1.23;;;;;;;;;;5042494;28;20953;-66
2023/08/27 13:08:43;;;;;;;2.92;1.17;;;;;;;;;;5036975;28;20473;-66
2023/08/27 13:11:10;;;;;;;3.55;1.20;;;;;;;;;;5041216;28;20420;-67
2023/08/27 13:13:37;;;;;;;3.10;1.17;;;;;;;;;;5044315;28;20453;-65
2023/08/27 13:16:04;;;;;;;2.83;1.17;;;;;;;;;;5046089;28;20467;-66
2023/08/27 13:18:33;;;;;;;3.90;1.10;;;;;;;;;;5044549;28;20405;-65
2023/08/27 13:21:00;;;;;;;3.77;1.20;;;;;;;;;;5042922;28;20831;-66
2023/08/27 13:23:27;;;;;;;2.78;0.88;;;;;;;;;;5044680;28;20466;-65
2023/08/27 13:25:54;;;;;;;1.77;1.10;;;;;;;;;;5041446;28;20417;-65
2023/08/27 13:28:22;;;;;;;3.17;1.30;;;;;;;;;;5044524;28;20456;-65
2023/08/27 13:30:49;;;;;;;2.17;0.97;;;;;;;;;;5041140;28;20494;-65
2023/08/27 13:33:16;;;;;;;2.38;0.98;;;;;;;;;;5044908;28;20414;-66
2023/08/27 13:35:44;;;;;;;2.15;1.10;;;;;;;;;;5040977;28;20958;-66
2023/08/27 13:38:11;;;;;;;1.85;1.00;;;;;;;;;;5037933;28;20418;-66
2023/08/27 13:40:39;;;;;;;2.38;1.00;;;;;;;;;;5036103;28;20411;-65
2023/08/27 13:43:06;;;;;;;2.25;0.90;;;;;;;;;;5035204;28;20410;-66
2023/08/27 13:45:33;;;;;;;2.72;0.90;;;;;;;;;;5044357;28;20417;-66
2023/08/27 13:48:01;;;;;;;3.08;0.93;;;;;;;;;;5042365;28;20481;-66
2023/08/27 13:50:28;;;;;;;1.83;1.10;;;;;;;;;;5044893;28;20409;-65
2023/08/27 13:52:56;;;;;;;4.43;1.35;;;;;;;;;;5040591;28;20411;-65
2023/08/27 13:55:23;;;;;;;5.67;1.90;;;;;;;;;;5035917;28;20536;-63
2023/08/27 13:57:50;;;;;;;4.47;1.70;;;;;;;;;;5034090;28;20414;-63
2023/08/27 14:00:17;;;;;;;5.20;1.80;;;;;;;;;;5037626;28;20834;-63
2023/08/27 14:02:44;;;;;;;3.92;2.10;;;;;;;;;;5038773;28;20409;-62
2023/08/27 14:05:11;;;;;;;4.82;2.30;;;;;;;;;;5038775;28;20485;-66
2023/08/27 14:07:38;;;;;;;5.87;2.47;;;;;;;;;;5034583;28;20463;-64
2023/08/27 14:10:07;;;;;;;6.15;2.88;;;;;;;;;;5037665;28;20792;-66
2023/08/27 14:12:34;;;;;;;6.95;2.63;;;;;;;;;;5036227;28;20419;-66
2023/08/27 14:15:01;;;;;;;5.28;2.22;;;;;;;;;;5047213;28;20482;-64
2023/08/27 14:17:28;;;;;;;5.97;2.45;;;;;;;;;;5038226;28;20406;-66
2023/08/27 14:19:55;;;;;;;5.68;2.40;;;;;;;;;;5039760;28;21036;-65
2023/08/27 14:22:25;;;;;;;3.95;2.03;;;;;;;;;;5041522;28;20443;-64
2023/08/27 14:24:52;;;;;;;3.22;2.28;;;;;;;;;;5034412;28;20430;-64
2023/08/27 14:27:20;;;;;;;5.93;2.30;;;;;;;;;;5038550;28;20440;-63
2023/08/27 14:29:47;;;;;;;4.07;1.93;;;;;;;;;;5035018;28;20835;-65
2023/08/27 14:32:15;;;;;;;4.32;2.50;;;;;;;;;;5036509;28;20439;-64
2023/08/27 14:34:42;;;;;;;4.38;2.03;;;;;;;;;;5044497;28;20434;-65
2023/08/27 14:37:09;;;;;;;4.60;2.20;;;;;;;;;;5040914;28;20419;-63
2023/08/27 14:39:35;;;;;;;3.40;2.00;;;;;;;;;;5040476;28;20477;-64
2023/08/27 14:42:02;;;;;;;5.53;2.17;;;;;;;;;;5039403;28;20418;-64
2023/08/27 14:44:32;;;;;;;3.67;2.03;;;;;;;;;;5038829;28;20581;-64
2023/08/27 14:46:59;;;;;;;5.35;2.20;;;;;;;;;;5042063;28;20488;-64